KLVKKHWD

Guest
Details From KLVK - Livermore Muni
To KHWD - Hayward Executive
Flight Number -
Tags Generated
Created
Modified
Stats Distance 14 nm / 27 km
Max Altitude 0 ft / 0 m
Waypoints 2
Social Downloads 0
Likes 0
Share VATSIM

Download

Looking for another format? Having issues loading an existing format? Contact us
Advertisement - Login to hide

Notes

Generated

Route

KLVK KHWD

ID Type Via Altitude (ft/m) Position (lat/lon) Dist (leg/tot) Name
O KLVK APT - 0 / 0 37.69253 / -121.82509 - / 0 nm
O KHWD APT - 0 / 0 37.66248 / -122.12726 14 / 14 nm

Altitude Profile

Advertisement - Login to hide

KLVK

Details ICAO KLVK (LVK)
Name Livermore Muni
Region United States
Timezone America/Los_Angeles (UTC-7.0)
Stats Elevation 399 ft / 122 m (AMSL)
Location 37.693200° -121.820000°
Runways 2
Magnetic Variation 13.312° E

METAR

KLVK 191853Z 22006KT 10SM CLR 24/06 A3012 RMK AO2 SLP197 T02390061

Decode

TAF

TAF KLVK 191720Z 1918/2018 02005KT P6SM SKC FM192100 29008KT P6SM SKC FM200400 VRB03KT P6SM SKC FM201200 00000KT P6SM SKC

Decode

Departure Runways

ID Width Length Bearing (true/mag) Surface Threshold Overrun Markings Lighting
07L 98 ft / 30 m 5,241 ft / 1,598 m 90.57° / 77.26° ASPHALT 0 ft / 0 m 151 ft / 46 m PREC-APP EDGE THRESHOLD
07R 75 ft / 23 m 2,694 ft / 821 m 90.58° / 77.27° ASPHALT 0 ft / 0 m 0 ft / 0 m VISUAL
25L 75 ft / 23 m 2,694 ft / 821 m 270.58° / 257.27° ASPHALT 0 ft / 0 m 0 ft / 0 m VISUAL
25R 98 ft / 30 m 5,241 ft / 1,598 m 270.58° / 257.27° ASPHALT 0 ft / 0 m 151 ft / 46 m PREC-APP EDGE THRESHOLD MALSR

KHWD

Details ICAO KHWD (HWD)
Name Hayward Executive
Region United States
Timezone America/Los_Angeles (UTC-7.0)
Stats Elevation 52 ft / 16 m (AMSL)
Location 37.659300° -122.122000°
Runways 2
Magnetic Variation 13.352° E

METAR

KHWD 191854Z VRB05KT 5SM HZ CLR 21/13 A3013 RMK AO2 SLP211 T02060133

Decode

TAF

Not found

Destination Runways

ID Width Length Bearing (true/mag) Surface Threshold Overrun Markings Lighting
10L 75 ft / 23 m 3,104 ft / 946 m 119.95° / 106.60° ASPHALT 0 ft / 0 m 0 ft / 0 m APP EDGE THRESHOLD
10R 151 ft / 46 m 5,688 ft / 1,734 m 119.95° / 106.60° ASPHALT 817 ft / 249 m 0 ft / 0 m APP EDGE THRESHOLD REIL-OMNI
28L 151 ft / 46 m 5,688 ft / 1,734 m 299.96° / 286.61° ASPHALT 676 ft / 206 m 0 ft / 0 m PREC-APP EDGE THRESHOLD REIL-OMNI
28R 75 ft / 23 m 3,104 ft / 946 m 299.96° / 286.61° ASPHALT 0 ft / 0 m 0 ft / 0 m APP EDGE THRESHOLD

Approach Navaids

Runway Type Ident Frequency Range Bearing (true/mag) Slope Elevation
28L DME IHWD 111.50 MHz 18 nm / 33 km - - 42 ft / 13 m (AMSL)
28L LOC-LOC IHWD 111.50 MHz 18 nm / 33 km 302.00° / 288.65 ° - 27 ft / 8 m (AMSL)

Popular Alternatives